createdAt,value
2023-02-28T00:01:30.216Z,8.98
2023-02-28T00:03:58.420Z,8.05
2023-02-28T00:06:26.396Z,8.65
2023-02-28T00:08:54.486Z,8.07
2023-02-28T00:11:22.655Z,8.15
2023-02-28T00:13:50.669Z,6.63
2023-02-28T00:16:21.887Z,7.43
2023-02-28T00:18:50.275Z,6.75
2023-02-28T00:21:19.842Z,7.13
2023-02-28T00:23:47.787Z,6.40
2023-02-28T00:26:16.220Z,6.70
2023-02-28T00:28:46.912Z,8.93
2023-02-28T00:31:15.574Z,8.02
2023-02-28T00:33:44.033Z,6.93
2023-02-28T00:36:12.738Z,7.57
2023-02-28T00:38:41.798Z,6.50
2023-02-28T00:41:09.918Z,7.32
2023-02-28T00:43:38.983Z,7.75
2023-02-28T00:46:07.681Z,6.95
2023-02-28T00:48:36.538Z,7.40
2023-02-28T00:51:05.078Z,7.70
2023-02-28T00:53:34.171Z,6.47
2023-02-28T00:56:03.070Z,6.63
2023-02-28T00:58:30.643Z,6.15
2023-02-28T01:00:59.323Z,8.18
2023-02-28T01:03:27.053Z,7.57
2023-02-28T01:05:55.394Z,6.43
2023-02-28T01:08:23.424Z,7.00
2023-02-28T01:10:52.568Z,7.65
2023-02-28T01:13:21.440Z,7.32
2023-02-28T01:15:56.260Z,5.55
2023-02-28T01:18:25.507Z,6.40
2023-02-28T01:20:53.644Z,7.05
2023-02-28T01:23:25.505Z,7.70
2023-02-28T01:25:54.272Z,8.82
2023-02-28T01:28:22.519Z,7.93
2023-02-28T01:30:52.800Z,6.30
2023-02-28T01:33:20.935Z,7.80
2023-02-28T01:35:48.673Z,6.97
2023-02-28T01:38:22.479Z,7.25
2023-02-28T01:40:51.618Z,5.68
2023-02-28T01:43:31.982Z,8.20
2023-02-28T01:46:00.673Z,7.32
2023-02-28T01:48:36.661Z,7.65
2023-02-28T01:51:11.236Z,6.95
2023-02-28T01:53:47.321Z,6.97
2023-02-28T01:56:21.650Z,6.47
2023-02-28T01:58:53.006Z,6.45
2023-02-28T02:01:27.164Z,6.47
2023-02-28T02:03:59.047Z,7.50
2023-02-28T02:06:35.640Z,7.30
2023-02-28T02:09:04.036Z,6.90
2023-02-28T02:11:32.038Z,6.50
2023-02-28T02:14:18.469Z,6.45
2023-02-28T02:17:17.486Z,6.55
2023-02-28T02:20:17.765Z,6.57
2023-02-28T02:23:19.999Z,6.32
2023-02-28T02:25:51.040Z,7.80
2023-02-28T02:28:37.274Z,6.97
2023-02-28T02:31:49.406Z,7.18
2023-02-28T02:34:29.206Z,5.90
2023-02-28T02:37:18.946Z,6.35
2023-02-28T02:40:12.437Z,5.70
2023-02-28T02:42:43.779Z,6.43
2023-02-28T02:45:18.602Z,6.72
2023-02-28T02:47:46.832Z,6.43
2023-02-28T02:50:20.907Z,7.35
2023-02-28T02:52:56.653Z,5.75
2023-02-28T02:55:25.253Z,6.90
2023-02-28T02:57:59.733Z,5.72
2023-02-28T03:00:34.637Z,6.75
2023-02-28T03:03:07.082Z,6.40
2023-02-28T03:05:45.667Z,5.53
2023-02-28T03:08:15.570Z,6.28
2023-02-28T03:10:47.252Z,6.32
2023-02-28T03:13:21.592Z,6.88
2023-02-28T03:15:58.259Z,6.63
2023-02-28T03:18:38.656Z,6.50
2023-02-28T03:21:26.754Z,6.20
2023-02-28T03:23:54.368Z,6.50
2023-02-28T03:26:24.778Z,6.28
2023-02-28T03:28:57.961Z,6.32
2023-02-28T03:31:44.842Z,6.43
2023-02-28T03:34:23.718Z,6.15
2023-02-28T03:37:00.396Z,6.80
2023-02-28T03:39:44.368Z,7.80
2023-02-28T03:45:10.604Z,6.32
2023-02-28T03:47:42.279Z,6.38
2023-02-28T03:50:32.546Z,6.38
2023-02-28T03:53:05.994Z,7.55
2023-02-28T03:55:39.692Z,7.13
2023-02-28T03:58:31.755Z,6.97
2023-02-28T04:01:09.837Z,7.20
2023-02-28T04:03:40.767Z,7.32
2023-02-28T04:06:17.109Z,7.65
2023-02-28T04:08:45.177Z,10.10
2023-02-28T04:11:18.355Z,7.05
2023-02-28T04:13:47.688Z,9.95
2023-02-28T04:16:32.103Z,6.18
2023-02-28T04:19:03.927Z,8.88
2023-02-28T04:21:35.244Z,7.45
2023-02-28T04:24:04.717Z,7.28
2023-02-28T04:26:37.606Z,6.78
2023-02-28T04:29:06.800Z,6.73
2023-02-28T04:31:35.699Z,7.85
2023-02-28T04:34:04.312Z,7.70
2023-02-28T04:36:32.362Z,7.82
2023-02-28T04:38:59.937Z,6.35
2023-02-28T04:41:30.214Z,7.82
2023-02-28T04:44:00.186Z,6.90
2023-02-28T04:46:27.799Z,7.47
2023-02-28T04:48:55.577Z,6.82
2023-02-28T04:51:23.552Z,7.43
2023-02-28T04:53:51.140Z,8.05
2023-02-28T04:56:19.130Z,7.55
2023-02-28T04:58:47.516Z,8.23
2023-02-28T05:01:25.347Z,9.30
2023-02-28T05:03:55.319Z,8.90
2023-02-28T05:06:25.554Z,8.07
2023-02-28T05:08:54.284Z,6.93
2023-02-28T05:11:35.921Z,6.50
2023-02-28T05:14:07.038Z,6.65
2023-02-28T05:16:35.021Z,7.88
2023-02-28T05:19:03.643Z,6.65
2023-02-28T05:21:36.801Z,8.65
2023-02-28T05:24:13.100Z,6.18
2023-02-28T05:26:43.734Z,6.53
2023-02-28T05:29:11.858Z,7.50
2023-02-28T05:31:39.918Z,6.65
2023-02-28T05:34:07.793Z,6.95
2023-02-28T05:36:38.652Z,7.13
2023-02-28T05:39:08.310Z,7.90
2023-02-28T05:41:36.300Z,7.10
2023-02-28T05:44:04.244Z,6.47
2023-02-28T05:46:32.202Z,6.55
2023-02-28T05:49:01.287Z,7.10
2023-02-28T05:51:29.327Z,6.68
2023-02-28T05:54:01.506Z,6.78
2023-02-28T05:56:29.365Z,6.90
2023-02-28T05:58:57.079Z,7.43
2023-02-28T06:01:26.966Z,6.90
2023-02-28T06:03:55.524Z,7.40
2023-02-28T06:06:23.527Z,7.93
2023-02-28T06:08:51.732Z,8.77
2023-02-28T06:11:20.953Z,6.97
2023-02-28T06:13:48.711Z,6.95
2023-02-28T06:16:16.721Z,9.45
2023-02-28T06:18:44.746Z,12.32
2023-02-28T06:21:14.031Z,7.55
2023-02-28T06:23:41.729Z,7.07
2023-02-28T06:26:09.304Z,8.00
2023-02-28T06:28:37.007Z,9.80
2023-02-28T06:31:14.211Z,7.90
2023-02-28T06:33:42.358Z,7.78
2023-02-28T06:36:12.244Z,8.75
2023-02-28T06:38:42.017Z,9.10
2023-02-28T06:41:10.108Z,8.13
2023-02-28T06:43:41.699Z,8.60
2023-02-28T06:46:14.581Z,8.35
2023-02-28T06:48:45.703Z,7.63
2023-02-28T06:51:18.724Z,8.57
2023-02-28T06:53:47.141Z,9.27
2023-02-28T06:56:16.867Z,8.52
2023-02-28T06:58:49.749Z,10.07
2023-02-28T07:01:18.622Z,8.17
2023-02-28T07:03:47.998Z,7.75
2023-02-28T07:06:18.783Z,8.27
2023-02-28T07:08:46.546Z,9.07
2023-02-28T07:11:15.169Z,7.78
2023-02-28T07:13:42.930Z,7.35
2023-02-28T07:16:12.528Z,8.15
2023-02-28T07:18:40.260Z,8.38
2023-02-28T07:21:10.660Z,7.78
2023-02-28T07:23:39.483Z,9.07
2023-02-28T07:26:09.165Z,11.27
2023-02-28T07:28:36.674Z,10.50
2023-02-28T07:31:06.602Z,9.02
2023-02-28T07:33:35.255Z,9.45
2023-02-28T07:36:08.562Z,7.95
2023-02-28T07:38:38.833Z,7.85
2023-02-28T07:41:06.428Z,7.05
2023-02-28T07:43:34.209Z,7.18
2023-02-28T07:46:07.138Z,9.50
2023-02-28T07:48:35.023Z,8.23
2023-02-28T07:51:02.806Z,8.10
2023-02-28T07:53:31.352Z,8.10
2023-02-28T07:56:01.896Z,8.05
2023-02-28T07:58:31.111Z,8.02
2023-02-28T08:01:05.883Z,8.60
2023-02-28T08:03:33.387Z,9.30
2023-02-28T08:06:01.318Z,7.00
2023-02-28T08:08:32.390Z,6.60
2023-02-28T08:11:02.314Z,7.63
2023-02-28T08:13:31.253Z,7.50
2023-02-28T08:15:59.412Z,8.38
2023-02-28T08:18:27.534Z,7.47
2023-02-28T08:20:55.591Z,7.35
2023-02-28T08:23:23.538Z,7.78
2023-02-28T08:25:56.039Z,7.43
2023-02-28T08:28:27.104Z,7.43
2023-02-28T08:30:55.745Z,8.23
2023-02-28T08:33:24.432Z,7.40
2023-02-28T08:35:57.546Z,8.23
2023-02-28T08:38:25.232Z,7.10
2023-02-28T08:40:59.981Z,7.35
2023-02-28T08:43:28.479Z,7.80
2023-02-28T08:46:00.059Z,6.95
2023-02-28T08:48:41.049Z,6.55
2023-02-28T08:51:19.648Z,7.60
2023-02-28T08:53:50.351Z,6.78
2023-02-28T08:56:18.677Z,7.25
2023-02-28T08:58:48.689Z,6.45
2023-02-28T09:01:21.552Z,7.55
2023-02-28T09:03:51.590Z,7.53
2023-02-28T09:06:21.587Z,7.78
2023-02-28T09:08:50.614Z,6.60
2023-02-28T09:11:19.750Z,5.75
2023-02-28T09:13:47.681Z,6.30
2023-02-28T09:16:17.409Z,6.65
2023-02-28T09:18:46.118Z,6.90
2023-02-28T09:21:18.753Z,6.55
2023-02-28T09:23:48.784Z,6.47
2023-02-28T09:26:24.718Z,6.47
2023-02-28T09:28:53.115Z,6.72
2023-02-28T09:31:24.346Z,6.00
2023-02-28T09:33:54.975Z,6.18
2023-02-28T09:36:28.935Z,6.68
2023-02-28T09:39:02.872Z,5.90
2023-02-28T09:41:42.412Z,5.47
2023-02-28T09:44:19.504Z,5.20
2023-02-28T09:46:51.729Z,4.82
2023-02-28T09:49:24.284Z,4.97
2023-02-28T09:52:06.382Z,6.18
2023-02-28T09:54:34.358Z,5.47
2023-02-28T09:57:25.486Z,4.50
2023-02-28T10:00:19.304Z,4.97
2023-02-28T10:03:04.288Z,5.13
2023-02-28T10:05:39.709Z,4.93
2023-02-28T10:08:22.424Z,5.80
2023-02-28T10:10:56.378Z,5.00
2023-02-28T10:14:02.352Z,5.10
2023-02-28T10:16:33.278Z,5.95
2023-02-28T10:19:12.388Z,5.32
2023-02-28T10:21:47.632Z,5.53
2023-02-28T10:24:28.386Z,6.20
2023-02-28T10:27:02.593Z,5.85
2023-02-28T10:29:33.985Z,6.05
2023-02-28T10:32:04.516Z,5.88
2023-02-28T10:34:32.113Z,5.90
2023-02-28T10:37:08.351Z,5.97
2023-02-28T10:39:47.795Z,6.40
2023-02-28T10:42:33.586Z,5.80
2023-02-28T10:45:18.168Z,6.57
2023-02-28T10:48:01.396Z,5.82
2023-02-28T10:50:31.025Z,6.05
2023-02-28T10:53:17.494Z,6.55
2023-02-28T10:55:45.310Z,5.68
2023-02-28T10:58:54.748Z,6.55
2023-02-28T11:01:26.924Z,6.78
2023-02-28T11:03:55.003Z,5.57
2023-02-28T11:06:30.326Z,6.32
2023-02-28T11:09:01.916Z,6.22
2023-02-28T11:11:42.490Z,8.80
2023-02-28T11:14:42.428Z,7.03
2023-02-28T11:17:21.447Z,6.97
2023-02-28T11:19:52.553Z,6.15
2023-02-28T11:22:22.790Z,7.13
2023-02-28T11:24:56.407Z,5.65
2023-02-28T11:27:43.992Z,5.95
2023-02-28T11:30:37.543Z,5.97
2023-02-28T11:33:31.369Z,7.10
2023-02-28T11:36:04.739Z,7.30
2023-02-28T11:38:36.044Z,6.35
2023-02-28T11:41:32.078Z,5.68
2023-02-28T11:44:00.175Z,6.80
2023-02-28T11:46:44.562Z,5.22
2023-02-28T11:49:35.309Z,6.18
2023-02-28T11:52:09.772Z,6.30
2023-02-28T11:54:49.361Z,7.53
2023-02-28T11:57:26.817Z,6.25
2023-02-28T12:00:24.452Z,7.30
2023-02-28T12:02:52.490Z,6.15
2023-02-28T12:05:37.522Z,7.28
2023-02-28T12:08:36.120Z,6.78
2023-02-28T12:11:30.937Z,7.25
2023-02-28T12:14:26.621Z,6.10
2023-02-28T12:17:13.258Z,7.53
2023-02-28T12:19:41.123Z,7.10
2023-02-28T12:22:52.794Z,8.57
2023-02-28T12:25:45.775Z,7.03
2023-02-28T12:28:18.481Z,7.40
2023-02-28T12:30:54.785Z,7.28
2023-02-28T12:33:26.268Z,7.50
2023-02-28T12:35:56.941Z,7.50
2023-02-28T12:38:37.829Z,7.75
2023-02-28T12:41:23.754Z,8.13
2023-02-28T12:44:01.983Z,7.97
2023-02-28T12:46:41.118Z,8.35
2023-02-28T12:49:18.421Z,8.55
2023-02-28T12:51:48.063Z,8.73
2023-02-28T12:54:25.824Z,8.35
2023-02-28T12:56:59.080Z,8.20
2023-02-28T12:59:39.672Z,8.63
2023-02-28T13:02:30.970Z,9.30
2023-02-28T13:05:14.061Z,7.90
2023-02-28T13:08:10.919Z,8.35
2023-02-28T13:10:43.940Z,7.85
2023-02-28T13:13:21.006Z,8.65
2023-02-28T13:16:07.353Z,7.90
2023-02-28T13:18:46.806Z,8.68
2023-02-28T13:21:32.126Z,7.93
2023-02-28T13:24:03.312Z,8.52
2023-02-28T13:26:31.733Z,8.73
2023-02-28T13:29:01.103Z,9.65
2023-02-28T13:31:29.522Z,8.45
2023-02-28T13:34:03.414Z,9.32
2023-02-28T13:36:33.652Z,8.35
2023-02-28T13:39:06.459Z,8.10
2023-02-28T13:41:36.991Z,7.47
2023-02-28T13:44:10.677Z,7.30
2023-02-28T13:46:49.649Z,8.52
2023-02-28T13:49:21.286Z,9.25
2023-02-28T13:51:52.068Z,7.43
2023-02-28T13:54:36.844Z,7.68
2023-02-28T13:57:13.997Z,7.93
2023-02-28T13:59:53.426Z,7.65
2023-02-28T14:02:45.952Z,8.27
2023-02-28T14:05:18.424Z,8.60
2023-02-28T14:07:54.343Z,8.50
2023-02-28T14:10:40.177Z,8.43
2023-02-28T14:13:45.865Z,7.32
2023-02-28T14:16:22.530Z,7.95
2023-02-28T14:19:31.952Z,7.25
2023-02-28T14:22:37.317Z,8.07
2023-02-28T14:25:41.331Z,7.20
2023-02-28T14:28:37.806Z,7.93
2023-02-28T14:31:12.522Z,7.70
2023-02-28T14:34:15.413Z,9.60
2023-02-28T14:36:44.696Z,7.72
2023-02-28T14:39:20.536Z,7.68
2023-02-28T14:41:48.244Z,8.30
2023-02-28T14:44:26.543Z,7.15
2023-02-28T14:47:00.028Z,7.28
2023-02-28T14:49:31.467Z,6.72
2023-02-28T14:52:28.348Z,7.05
2023-02-28T14:55:00.447Z,6.50
2023-02-28T14:57:30.431Z,6.47
2023-02-28T15:00:26.650Z,7.18
2023-02-28T15:02:56.103Z,8.18
2023-02-28T15:05:35.116Z,6.03
2023-02-28T15:08:13.583Z,6.53
2023-02-28T15:10:54.928Z,6.63
2023-02-28T15:13:24.082Z,7.55
2023-02-28T15:16:05.075Z,6.97
2023-02-28T15:18:55.533Z,7.18
2023-02-28T15:21:31.599Z,7.68
2023-02-28T15:24:06.653Z,7.38
2023-02-28T15:26:39.772Z,7.50
2023-02-28T15:29:18.443Z,7.60
2023-02-28T15:31:57.489Z,8.13
2023-02-28T15:34:45.121Z,7.53
2023-02-28T15:37:47.890Z,8.15
2023-02-28T15:40:24.708Z,8.13
2023-02-28T15:43:31.229Z,7.47
2023-02-28T15:45:59.399Z,7.85
2023-02-28T15:48:31.413Z,7.50
2023-02-28T15:51:07.416Z,7.50
2023-02-28T15:53:50.425Z,8.43
2023-02-28T15:56:48.332Z,7.63
2023-02-28T15:59:21.574Z,7.60
2023-02-28T16:02:22.020Z,7.80
2023-02-28T16:05:03.229Z,7.85
2023-02-28T16:07:31.785Z,7.78
2023-02-28T16:10:01.089Z,8.38
2023-02-28T16:12:31.348Z,8.35
2023-02-28T16:15:03.881Z,8.85
2023-02-28T16:17:36.216Z,9.52
2023-02-28T16:20:15.025Z,9.30
2023-02-28T16:22:43.803Z,8.90
2023-02-28T16:25:16.976Z,8.93
2023-02-28T16:27:50.349Z,9.15
2023-02-28T16:30:25.168Z,9.93
2023-02-28T16:32:56.171Z,9.10
2023-02-28T16:35:24.702Z,10.65
2023-02-28T16:37:53.737Z,8.57
2023-02-28T16:40:26.523Z,9.55
2023-02-28T16:42:59.708Z,9.98
2023-02-28T16:45:29.781Z,9.85
2023-02-28T16:47:58.140Z,9.00
2023-02-28T16:50:29.815Z,8.35
2023-02-28T16:52:58.160Z,9.35
2023-02-28T16:55:27.303Z,10.45
2023-02-28T16:57:58.347Z,11.27
2023-02-28T17:00:27.399Z,11.63
2023-02-28T17:02:55.751Z,11.15
2023-02-28T17:05:24.371Z,9.25
2023-02-28T17:07:52.481Z,11.52
2023-02-28T17:10:26.479Z,11.55
2023-02-28T17:12:58.403Z,10.85
2023-02-28T17:15:32.168Z,10.30
2023-02-28T17:18:00.561Z,12.75
2023-02-28T17:20:28.744Z,11.20
2023-02-28T17:22:57.082Z,13.55
2023-02-28T17:25:25.713Z,12.60
2023-02-28T17:27:54.211Z,11.05
2023-02-28T17:30:25.667Z,11.38
2023-02-28T17:32:53.634Z,12.60
2023-02-28T17:35:22.286Z,12.73
2023-02-28T17:37:50.780Z,12.25
2023-02-28T17:40:23.633Z,12.18
2023-02-28T17:42:53.465Z,11.33
2023-02-28T17:45:21.141Z,12.77
2023-02-28T17:47:51.388Z,13.40
2023-02-28T17:50:22.760Z,12.43
2023-02-28T17:52:51.547Z,11.45
2023-02-28T17:55:22.642Z,13.05
2023-02-28T17:57:50.869Z,10.95
2023-02-28T18:00:19.231Z,12.80
2023-02-28T18:02:47.799Z,11.52
2023-02-28T18:05:15.907Z,12.55
2023-02-28T18:07:43.776Z,13.98
2023-02-28T18:10:20.736Z,15.13
2023-02-28T18:12:50.880Z,13.68
2023-02-28T18:15:21.625Z,15.23
2023-02-28T18:17:50.608Z,13.07
2023-02-28T18:20:18.952Z,13.52
2023-02-28T18:22:47.567Z,13.52
2023-02-28T18:25:17.152Z,14.50
2023-02-28T18:27:58.426Z,13.38
2023-02-28T18:30:30.866Z,12.48
2023-02-28T18:32:59.788Z,14.48
2023-02-28T18:35:35.429Z,14.18
2023-02-28T18:38:06.143Z,15.05
2023-02-28T18:40:34.063Z,13.75
2023-02-28T18:43:02.874Z,13.15
2023-02-28T18:45:32.043Z,11.85
2023-02-28T18:47:59.657Z,13.93
2023-02-28T18:50:27.847Z,13.00
2023-02-28T18:52:57.904Z,12.85
2023-02-28T18:55:27.873Z,13.75
2023-02-28T18:57:56.621Z,13.30
2023-02-28T19:00:25.839Z,14.10
2023-02-28T19:02:54.443Z,12.85
2023-02-28T19:05:22.464Z,14.77
2023-02-28T19:07:50.851Z,14.82
2023-02-28T19:10:19.251Z,13.75
2023-02-28T19:12:47.832Z,15.23
2023-02-28T19:15:15.379Z,15.77
2023-02-28T19:17:46.299Z,15.65
2023-02-28T19:20:14.392Z,14.05
2023-02-28T19:22:42.747Z,17.17
2023-02-28T19:25:11.573Z,14.88
2023-02-28T19:27:39.855Z,15.40
2023-02-28T19:30:08.884Z,15.95
2023-02-28T19:32:37.049Z,14.23
2023-02-28T19:35:05.620Z,14.85
2023-02-28T19:37:38.337Z,15.98
2023-02-28T19:40:08.910Z,16.83
2023-02-28T19:42:36.555Z,15.63
2023-02-28T19:45:05.641Z,16.70
2023-02-28T19:47:33.349Z,15.10
2023-02-28T19:50:01.695Z,15.27
2023-02-28T19:52:29.808Z,20.63
2023-02-28T19:54:58.847Z,18.95
2023-02-28T19:57:26.571Z,20.45
2023-02-28T19:59:54.548Z,21.33
2023-02-28T20:02:23.451Z,22.92
2023-02-28T20:04:51.739Z,22.67
2023-02-28T20:07:20.438Z,20.70
2023-02-28T20:09:49.134Z,20.23
2023-02-28T20:12:25.100Z,18.88
2023-02-28T20:14:56.194Z,18.27
2023-02-28T20:17:24.709Z,17.92
2023-02-28T20:19:52.295Z,18.75
2023-02-28T20:22:20.602Z,17.30
2023-02-28T20:24:48.821Z,18.42
2023-02-28T20:27:17.418Z,17.42
2023-02-28T20:29:46.259Z,17.58
2023-02-28T20:32:13.932Z,17.88
2023-02-28T20:34:42.170Z,19.42
2023-02-28T20:37:09.773Z,19.52
2023-02-28T20:39:37.774Z,18.75
2023-02-28T20:42:06.389Z,18.17
2023-02-28T20:44:34.408Z,18.90
2023-02-28T20:47:02.730Z,18.90
2023-02-28T20:49:30.638Z,17.88
2023-02-28T20:51:58.624Z,19.52
2023-02-28T20:54:26.619Z,17.95
2023-02-28T20:56:55.037Z,17.02
2023-02-28T20:59:22.989Z,18.23
2023-02-28T21:01:50.537Z,19.48
2023-02-28T21:04:18.595Z,18.85
2023-02-28T21:06:47.614Z,20.33
2023-02-28T21:09:16.557Z,17.27
2023-02-28T21:11:46.071Z,19.23
2023-02-28T21:14:17.706Z,19.85
2023-02-28T21:16:46.151Z,18.92
2023-02-28T21:19:14.322Z,18.88
2023-02-28T21:21:44.341Z,17.45
2023-02-28T21:24:15.233Z,18.48
2023-02-28T21:26:45.256Z,18.20
2023-02-28T21:29:14.059Z,16.83
2023-02-28T21:31:42.169Z,16.48
2023-02-28T21:34:12.853Z,16.80
2023-02-28T21:36:45.705Z,15.73
2023-02-28T21:39:17.131Z,17.08
2023-02-28T21:41:45.315Z,15.63
2023-02-28T21:44:18.460Z,17.45
2023-02-28T21:46:49.218Z,17.48
2023-02-28T21:49:17.731Z,16.13
2023-02-28T21:51:45.558Z,16.83
2023-02-28T21:54:14.583Z,15.02
2023-02-28T21:56:43.056Z,16.23
2023-02-28T21:59:11.681Z,16.05
2023-02-28T22:01:45.724Z,16.00
2023-02-28T22:04:22.557Z,15.27
2023-02-28T22:06:53.722Z,17.65
2023-02-28T22:09:22.841Z,15.90
2023-02-28T22:11:52.028Z,14.52
2023-02-28T22:14:20.135Z,15.60
2023-02-28T22:16:51.775Z,17.58
2023-02-28T22:19:23.120Z,15.25
2023-02-28T22:21:53.685Z,12.82
2023-02-28T22:24:25.034Z,11.98
2023-02-28T22:26:53.047Z,11.75
2023-02-28T22:29:21.586Z,10.40
2023-02-28T22:31:50.784Z,8.43
2023-02-28T22:34:18.665Z,9.63
2023-02-28T22:36:46.731Z,9.20
2023-02-28T22:39:14.779Z,8.88
2023-02-28T22:41:43.193Z,8.77
2023-02-28T22:44:11.040Z,7.95
2023-02-28T22:46:38.980Z,9.50
2023-02-28T22:49:07.511Z,8.52
2023-02-28T22:51:35.655Z,8.15
2023-02-28T22:54:04.524Z,8.00
2023-02-28T22:56:32.614Z,8.30
2023-02-28T22:59:01.659Z,7.65
2023-02-28T23:01:32.058Z,8.85
2023-02-28T23:04:01.391Z,9.27
2023-02-28T23:06:37.776Z,8.32
2023-02-28T23:09:08.167Z,8.65
2023-02-28T23:11:40.802Z,8.13
2023-02-28T23:14:10.183Z,7.63
2023-02-28T23:16:42.822Z,8.70
2023-02-28T23:19:13.795Z,8.30
2023-02-28T23:21:43.096Z,8.07
2023-02-28T23:24:12.731Z,10.10
2023-02-28T23:26:43.922Z,8.30
2023-02-28T23:29:13.984Z,8.00
2023-02-28T23:31:42.648Z,8.20
2023-02-28T23:34:11.266Z,9.50
2023-02-28T23:36:43.547Z,8.18
2023-02-28T23:39:13.639Z,8.77
2023-02-28T23:41:41.812Z,8.00
2023-02-28T23:44:13.773Z,8.38
2023-02-28T23:46:41.460Z,8.13
2023-02-28T23:49:09.247Z,10.10
2023-02-28T23:51:37.611Z,9.25
2023-02-28T23:54:06.287Z,10.00
2023-02-28T23:56:34.709Z,8.60
2023-02-28T23:59:02.181Z,7.70
